Vanua Mbalavu, Fiji
Current Conditions -  °F | °C
As of 8:00 PM on Thursday 27 Nov 2014 (Local Time) from NFNA Reporting Station
Broken Clouds Broken Clouds  
Wind Chill: 77°   Ceiling: 2200
Heat Index: 78°   Visibility: 25mi
Dew Point: 73°   Wind: 7mph
Humidity: 89%   Direction: 140°SE
Pressure: 29.8"   Gusts: NA
Location:  17.25°S, 178.92°W
Report Text: NFNA 270800Z 14006KT 40KM BKN022 SCT045 25/23 Q1009 RMK RR TCERESH
Loading
Personal Weather Stations






























Interactive Weather Map New forecast layout! Learn more

10-Day Weather Forecast

Advertisements
Track Severe Weather on mobile